KMDT/MDT METAR and TAF weather

Enter ICAO airport designator
Station Type Date Time Source
KMDT METAR 2020/03/31 12:56 UTC NOAA

KMDT 311256Z 03004KT 10SM FEW039 OVC049 08/03 A3000 RMK AO2 SLP162 T00830028


Station Type Date Time Source
KMDT Decoded METAR 2020/03/31 12:56 UTC NOAA

HARRISBURG INTERNATIONAL AIRPORT, PA, United States (KMDT) 40-12N 076-46W 95M
Mar 31, 2020 - 08:56 AM EDT / 2020.03.31 1256 UTC
Wind: from the NNE (030 degrees) at 5 MPH (4 KT):0
Visibility: 10 mile(s):0
Sky conditions: overcast
Temperature: 46.9 F (8.3 C)
Dew Point: 37.0 F (2.8 C)
Relative Humidity: 68%
Pressure (altimeter): 30 in. Hg (1015 hPa)
ob: KMDT 311256Z 03004KT 10SM FEW039 OVC049 08/03 A3000 RMK AO2 SLP162 T00830028
cycle: 13

Station Type Date Time Source
KMDT TAF 2020/03/31 12:24 UTC NOAA

TAF KMDT 311121Z 3112/0112 34008KT P6SM BKN040
FM311400 04005KT 4SM BR OVC020
FM311600 10007KT 4SM BR VCSH OVC008
FM010000 09004KT P6SM OVC025
FM010600 03005KT P6SM OVC015

Example: see airport list